Hlavní strana
METAR-TAF:

METAR-TAF

Letiště :

Letiště Okajama

Okajama, Japonsko

zeměpisná šířka: 34-45N, zeměpisná délka: 133-51E, výška: 241 m

Aktuální stav počasí

Zpráva byla vytvořena před 29 minutami, v 02:00 UTC
vítr z různých směrů 2 kt
Teplota 8°C
Vlhkost vzduchu 66%
Tlak 1030 hPa
Viditelnost 10 km a více
Skoro jasno ve výšce 2000 ft
Polojasno ve výšce 9000 ft
Oblačno až skoro zataženo ve výšce 11000 ft

METAR: RJOB 200200Z VRB02KT 9999 FEW020 SCT090 BKN110 08/02 Q1030

Čas: 11:29 (02:29 UTC)

Předpověď počasí

Zpráva byla vytvořena před 3 hodinami a 23 minutami, v 23:06 UTC
Předpověď platná od 20 v 00 UTC do 21 v 06 UTC
Severní vítr 5 kt
Viditelnost 10 km a více
Skoro jasno ve výšce 3000 ft

TAF: RJOB 192306Z 2000/2106 01005KT 9999 FEW030

Stav a předpovědi počasí z více než 4 000 letišť (zprávy METAR a TAF).

Červené a žluté tečky na mapě představují dostupné meteorologické stanice.

Když kurzor umístíte na tečku, zobrazí se název stanice.

Pak kliknutím zobrazíte stav a předpověď počasí.

Chcete-li změnit mapu, kliknutím na zelené tlačítko se znaménkem +mapu přiblížíte, kliknutím na zelené tlačítko se znaménkem – mapu oddálíte a kliknutím na zelené šipky přejdete na sousední mapy.


METAR-TAF: